メインページ
METAR-TAF:

METAR-TAF

空港 :

シルビオ・ペッティロッシ国際空港

アスンシオン, パラグアイ

緯度: 25-16S, 経度: 057-38W, 海抜: 101m

現時点の気象観測

当レポートは41分前の08:00(UTC)に作成
変向風 3kt
気温 19°C
湿度 94%
気圧 1012 hPa
視程10km以上
1,500メートル以下は雲なし、積乱雲なし

METAR: SGAS 200800Z VRB03KT CAVOK 19/18 Q1012

時間: 04:41 (08:41 UTC)

予報

当レポートは4時間41分前の04:00(UTC)に作成
予報は20日の 06時(UTC)から 21日の 06時(UTC)まで有効
変向風 4kt
視程10km以上
高度2700ftの雲は散在している
20日の 11時(UTC)から 20日の 13時(UTC)まで徐々に
視程10km以上
高度2700ftの千切れ雲あり
20日の 16時(UTC)から 20日の 19時(UTC)まで一時的に
視程: 8000m
高度2000ftの千切れ雲あり
小雨
20日の 23時(UTC)から 21日の 02時(UTC)まで徐々に
西/南西の風 10kt
視程: 5000m
高度1500ftの曇り
高度4000ftの雲はほとんどない, 積乱雲.
激しい雷雨, 雨
21日の 03時(UTC)から 21日の 05時(UTC)まで一時的に
変向風 5kt
視程: 8000m
高度2000ftの千切れ雲あり
小雨

TAF: SGAS 200400Z 2006/2106 VRB04KT 9999 SCT027 TX27/2019Z TN19/2009Z BECMG 2011/2013 05008 9999 BKN027 TEMPO 2016/2019 8000 -RA BKN020 BECMG 2023/2102 24010KT 5000 TSRA OVC015 FEW040CB TEMPO 2103/2105 VRB05KT 8000 -RA BKN020

4,000以上の空港の気象観測と天気予報(METAR報とTAF報)

利用可能な観測所は地図上に黄色い丸と赤い丸で示す。

丸の上にカーソルを重ねると観測所名を参照できる。

次にクリックすると気象観測と天気予報を参照できる。

マップの切り替え:黒色「×」印の緑ボタンをクリックして拡大、「-」印の緑ボタンをクリックして縮小、緑色の三角印をクリックして隣りの地図に切り替え


METAR-TAF: